Time;durP1;ratioP1;P1;durP2;ratioP2;P2;SDS_P1;SDS_P2;PMS_P1;PMS_P2;Temp;Humidity;BMP_temperature;BMP_pressure;BME280_temperature;BME280_humidity;BME280_pressure;Samples;Min_cycle;Max_cycle;Signal;HPM_P1;HPM_P2
2022/03/08 00:00:20;;;;;;;3.85;1.25;;;26.10;81.50;;;;;;5095026;23;20013;-67
2022/03/08 00:02:42;;;;;;;5.05;1.10;;;26.10;81.00;;;;;;5133068;23;20095;-64
2022/03/08 00:05:05;;;;;;;3.80;1.20;;;26.10;80.90;;;;;;5127966;23;20027;-65
2022/03/08 00:07:28;;;;;;;0.77;0.50;;;26.00;80.90;;;;;;5128398;23;20020;-66
2022/03/08 00:09:50;;;;;;;3.92;1.10;;;26.10;81.10;;;;;;5133864;23;20659;-67
2022/03/08 00:12:13;;;;;;;1.75;0.80;;;26.10;81.20;;;;;;5129828;23;20099;-66
2022/03/08 00:14:36;;;;;;;1.85;0.77;;;26.10;81.30;;;;;;5129311;23;20057;-66
2022/03/08 00:16:59;;;;;;;1.30;0.90;;;26.10;81.30;;;;;;5133402;23;20024;-64
2022/03/08 00:19:21;;;;;;;2.10;0.98;;;26.10;81.40;;;;;;5132198;23;20058;-67
2022/03/08 00:21:44;;;;;;;2.85;0.90;;;26.10;81.30;;;;;;5132065;23;20420;-67
2022/03/08 00:24:07;;;;;;;2.55;0.80;;;26.10;81.50;;;;;;5137765;23;20671;-67
2022/03/08 00:26:29;;;;;;;2.13;0.70;;;26.10;81.40;;;;;;5102852;23;20547;-65
2022/03/08 00:28:52;;;;;;;1.77;0.75;;;26.10;81.40;;;;;;5134622;23;20055;-67
2022/03/08 00:31:14;;;;;;;2.15;0.88;;;26.10;81.40;;;;;;5137894;23;20020;-72
2022/03/08 00:33:37;;;;;;;1.85;0.75;;;26.10;81.50;;;;;;5105497;23;20051;-69
2022/03/08 00:36:00;;;;;;;1.25;0.65;;;26.20;81.50;;;;;;5135620;23;20419;-67
2022/03/08 00:38:22;;;;;;;1.60;0.80;;;26.20;81.60;;;;;;5136983;23;21131;-66
2022/03/08 00:40:45;;;;;;;2.15;0.88;;;26.20;82.20;;;;;;5137362;23;20467;-69
2022/03/08 00:43:08;;;;;;;1.58;0.73;;;26.20;81.70;;;;;;5135657;23;20047;-65
2022/03/08 00:45:30;;;;;;;2.05;0.90;;;26.20;81.70;;;;;;5136327;23;21202;-65
2022/03/08 00:47:53;;;;;;;3.35;1.00;;;26.20;81.70;;;;;;5137833;23;20784;-66
2022/03/08 00:50:21;;;;;;;3.15;1.00;;;26.20;81.60;;;;;;5138035;23;20016;-64
2022/03/08 00:52:44;;;;;;;2.90;1.23;;;26.20;81.60;;;;;;5142287;23;20043;-66
2022/03/08 00:55:08;;;;;;;1.05;0.50;;;26.30;81.50;;;;;;5139898;23;20380;-66
2022/03/08 00:57:31;;;;;;;10.63;1.20;;;26.20;81.40;;;;;;5110921;23;20012;-66
2022/03/08 00:59:53;;;;;;;1.60;0.75;;;26.20;81.40;;;;;;5144385;23;20093;-67
2022/03/08 01:02:16;;;;;;;2.42;1.17;;;26.30;81.40;;;;;;5140377;23;20837;-71
2022/03/08 01:04:38;;;;;;;2.55;0.85;;;26.30;81.30;;;;;;5140771;23;20012;-65
2022/03/08 01:07:01;;;;;;;2.22;0.82;;;26.30;81.30;;;;;;5144118;23;20133;-66
2022/03/08 01:09:24;;;;;;;1.38;0.57;;;26.30;81.30;;;;;;5143794;23;20027;-64
2022/03/08 01:11:46;;;;;;;2.42;0.77;;;26.30;81.20;;;;;;5133609;23;20047;-65
2022/03/08 01:14:09;;;;;;;1.23;0.63;;;26.30;81.10;;;;;;5119354;23;21178;-64
2022/03/08 01:16:32;;;;;;;2.30;0.80;;;26.30;81.10;;;;;;5145552;23;20015;-65
2022/03/08 01:18:54;;;;;;;2.30;0.93;;;26.30;81.00;;;;;;5142302;23;20256;-69
2022/03/08 01:21:17;;;;;;;1.27;0.63;;;26.40;81.00;;;;;;5144199;23;20062;-63
2022/03/08 01:23:40;;;;;;;3.10;1.13;;;26.40;81.00;;;;;;5141043;23;20016;-65
2022/03/08 01:26:03;;;;;;;3.65;1.60;;;26.40;80.60;;;;;;5143324;23;20023;-66
2022/03/08 01:28:25;;;;;;;4.18;1.50;;;26.30;80.10;;;;;;5150931;23;20012;-67
2022/03/08 01:30:48;;;;;;;3.22;1.67;;;26.30;79.90;;;;;;5149957;23;20131;-66
2022/03/08 01:33:11;;;;;;;3.85;1.42;;;26.30;79.90;;;;;;5145071;23;20105;-66
2022/03/08 01:35:34;;;;;;;2.72;1.20;;;26.20;79.90;;;;;;5107926;23;20020;-66
2022/03/08 01:37:57;;;;;;;4.45;1.48;;;26.20;79.90;;;;;;5138491;23;20111;-67
2022/03/08 01:40:19;;;;;;;2.28;1.38;;;26.20;79.90;;;;;;5131135;23;20431;-67
2022/03/08 01:42:46;;;;;;;3.60;1.38;;;26.20;80.00;;;;;;5126468;23;20119;-67
2022/03/08 01:45:09;;;;;;;2.72;1.30;;;26.10;80.50;;;;;;5126200;23;20667;-66
2022/03/08 01:47:31;;;;;;;2.92;1.27;;;26.10;79.90;;;;;;5119592;23;20019;-67
2022/03/08 01:49:55;;;;;;;4.55;1.60;;;26.10;79.90;;;;;;5124864;23;20576;-66
2022/03/08 01:52:21;;;;;;;5.00;1.58;;;26.10;79.90;;;;;;5127799;23;20016;-68
2022/03/08 01:54:45;;;;;;;3.88;1.20;;;26.10;79.90;;;;;;5122899;23;20055;-68
2022/03/08 01:57:08;;;;;;;2.78;1.50;;;26.10;80.00;;;;;;5127811;23;20973;-70
2022/03/08 01:59:31;;;;;;;3.60;1.63;;;26.10;80.10;;;;;;5120972;23;20146;-67
2022/03/08 02:01:53;;;;;;;3.40;1.38;;;26.10;80.20;;;;;;5122196;23;20016;-70
2022/03/08 02:04:16;;;;;;;4.68;1.10;;;26.10;80.30;;;;;;5128272;23;20026;-70
2022/03/08 02:06:39;;;;;;;2.72;0.88;;;26.10;80.30;;;;;;5121993;23;20458;-67
2022/03/08 02:09:02;;;;;;;3.85;1.23;;;26.10;80.40;;;;;;5124705;23;20388;-66
2022/03/08 02:11:24;;;;;;;3.10;0.98;;;26.00;80.50;;;;;;5125985;23;20016;-63
2022/03/08 02:13:47;;;;;;;1.85;0.80;;;26.00;80.50;;;;;;5091949;23;20070;-66
2022/03/08 02:16:11;;;;;;;4.18;1.10;;;26.00;80.60;;;;;;5122323;23;20103;-64
2022/03/08 02:18:34;;;;;;;2.25;0.90;;;26.00;80.60;;;;;;5126842;23;20019;-65
2022/03/08 02:20:56;;;;;;;1.55;1.00;;;26.00;80.60;;;;;;5122152;23;20016;-67
2022/03/08 02:23:19;;;;;;;1.30;0.75;;;26.00;80.70;;;;;;5124272;23;20020;-68
2022/03/08 02:25:41;;;;;;;2.58;1.13;;;26.00;80.70;;;;;;5130738;23;20015;-69
2022/03/08 02:28:04;;;;;;;2.45;0.60;;;26.00;80.70;;;;;;5125942;23;20015;-69
2022/03/08 02:30:27;;;;;;;1.87;0.70;;;26.00;80.70;;;;;;5124251;23;20054;-68
2022/03/08 02:32:50;;;;;;;1.98;0.90;;;26.10;80.80;;;;;;5125836;23;20335;-64
2022/03/08 02:35:19;;;;;;;2.10;0.80;;;26.10;80.70;;;;;;5125641;23;20050;-66
2022/03/08 02:37:47;;;;;;;1.88;0.55;;;26.00;80.60;;;;;;5091140;23;20247;-65
2022/03/08 02:40:13;;;;;;;2.28;0.93;;;26.00;80.70;;;;;;5095654;23;20380;-68
2022/03/08 02:42:36;;;;;;;2.15;0.60;;;26.00;80.60;;;;;;5125031;23;20332;-68
2022/03/08 02:44:59;;;;;;;2.65;0.98;;;26.00;80.60;;;;;;5100979;23;20071;-68
2022/03/08 02:47:24;;;;;;;2.40;0.90;;;26.00;80.70;;;;;;5126535;23;20024;-68
2022/03/08 02:49:46;;;;;;;4.07;0.95;;;26.00;80.80;;;;;;5118461;23;20016;-68
2022/03/08 02:52:09;;;;;;;4.13;0.75;;;26.00;80.70;;;;;;5131979;23;20130;-67
2022/03/08 02:54:31;;;;;;;3.60;1.25;;;26.00;80.70;;;;;;5127159;23;20027;-66
2022/03/08 02:56:54;;;;;;;3.78;0.88;;;26.00;80.70;;;;;;5124955;23;20671;-67
2022/03/08 02:59:24;;;;;;;4.25;1.02;;;26.00;80.70;;;;;;5130570;23;20085;-65
2022/03/08 03:01:46;;;;;;;2.85;0.70;;;26.00;80.70;;;;;;5124528;23;20021;-66
2022/03/08 03:04:09;;;;;;;1.17;0.50;;;26.00;80.70;;;;;;5127413;23;20008;-67
2022/03/08 03:06:35;;;;;;;1.27;0.82;;;26.00;80.70;;;;;;5130118;23;20389;-66
2022/03/08 03:08:57;;;;;;;5.03;0.82;;;25.90;80.60;;;;;;5117844;23;20518;-65
2022/03/08 03:11:20;;;;;;;3.90;0.80;;;25.90;80.60;;;;;;5131491;23;20455;-64
2022/03/08 03:13:42;;;;;;;3.25;0.80;;;26.00;80.80;;;;;;5129249;23;20047;-66
2022/03/08 03:16:05;;;;;;;3.40;1.00;;;25.90;80.70;;;;;;5122156;23;20016;-66
2022/03/08 03:18:31;;;;;;;1.63;0.70;;;25.90;80.70;;;;;;5127930;23;20397;-66
2022/03/08 03:20:54;;;;;;;3.10;1.15;;;25.90;80.30;;;;;;5127425;23;20020;-68
2022/03/08 03:23:16;;;;;;;4.07;1.10;;;25.90;80.00;;;;;;5128999;23;20020;-68
2022/03/08 03:25:39;;;;;;;3.45;1.13;;;25.90;79.70;;;;;;5129599;23;20075;-61
2022/03/08 03:28:01;;;;;;;3.15;1.20;;;25.90;79.90;;;;;;5123717;23;20097;-63
2022/03/08 03:30:27;;;;;;;4.10;1.60;;;25.80;79.70;;;;;;5128605;23;20024;-60
2022/03/08 03:32:49;;;;;;;3.25;0.90;;;25.80;79.80;;;;;;5135488;23;20047;-63
2022/03/08 03:35:13;;;;;;;3.10;1.33;;;25.90;80.20;;;;;;5135034;23;20023;-65
2022/03/08 03:37:39;;;;;;;3.47;1.02;;;25.80;80.20;;;;;;5128966;23;20012;-64
2022/03/08 03:40:02;;;;;;;3.10;1.10;;;25.80;80.30;;;;;;5136861;22;20020;-62
2022/03/08 03:42:25;;;;;;;1.17;0.73;;;25.80;80.30;;;;;;5134244;23;20019;-61
2022/03/08 03:44:47;;;;;;;5.10;1.40;;;25.90;80.50;;;;;;5136414;23;20713;-64
2022/03/08 03:47:09;;;;;;;3.80;0.93;;;25.90;80.50;;;;;;5139219;23;20095;-62
2022/03/08 03:49:32;;;;;;;1.45;0.70;;;25.80;80.50;;;;;;5132244;23;20624;-63
2022/03/08 03:51:55;;;;;;;1.75;0.95;;;25.90;80.60;;;;;;5133033;23;20098;-64
2022/03/08 03:54:21;;;;;;;1.50;0.60;;;25.90;80.50;;;;;;5129344;23;20028;-63
2022/03/08 03:56:46;;;;;;;1.10;0.60;;;25.90;80.50;;;;;;5132761;23;20015;-64
2022/03/08 03:59:09;;;;;;;2.67;0.85;;;25.90;80.50;;;;;;5137349;23;20012;-64
2022/03/08 04:01:41;;;;;;;1.15;0.80;;;25.90;80.50;;;;;;5126351;23;20095;-64
2022/03/08 04:04:04;;;;;;;1.83;0.70;;;25.90;80.50;;;;;;5136386;23;20016;-62
2022/03/08 04:06:26;;;;;;;7.80;1.10;;;25.90;80.50;;;;;;5139635;23;20016;-62
2022/03/08 04:08:49;;;;;;;1.00;0.82;;;25.90;80.50;;;;;;5134124;23;20020;-62
2022/03/08 04:11:12;;;;;;;1.40;0.63;;;25.90;80.50;;;;;;5133814;23;20023;-61
2022/03/08 04:13:34;;;;;;;2.38;0.73;;;25.90;80.50;;;;;;5108385;23;20027;-61
2022/03/08 04:15:56;;;;;;;1.85;0.85;;;25.90;80.50;;;;;;5137277;23;20044;-61
2022/03/08 04:18:19;;;;;;;1.13;0.55;;;25.90;80.40;;;;;;5135283;23;20456;-62
2022/03/08 04:20:42;;;;;;;1.33;0.70;;;25.90;80.40;;;;;;5138362;23;20099;-63
2022/03/08 04:23:04;;;;;;;1.35;0.70;;;25.90;80.40;;;;;;5141476;23;20105;-60
2022/03/08 04:25:27;;;;;;;1.10;0.47;;;25.90;80.50;;;;;;5141344;23;20401;-61
2022/03/08 04:27:49;;;;;;;1.50;0.60;;;26.00;80.40;;;;;;5143442;23;20027;-63
2022/03/08 04:30:13;;;;;;;1.20;0.75;;;25.90;80.20;;;;;;5135911;23;20109;-64
2022/03/08 04:32:38;;;;;;;0.88;0.50;;;25.90;80.30;;;;;;5140180;23;20016;-64
2022/03/08 04:35:01;;;;;;;2.88;0.80;;;25.90;80.30;;;;;;5140288;23;20389;-65
2022/03/08 04:37:26;;;;;;;1.75;0.80;;;25.90;80.30;;;;;;5137262;23;20024;-66
2022/03/08 04:40:09;;;;;;;1.65;0.88;;;25.90;80.30;;;;;;5138054;22;20036;-64
2022/03/08 04:42:32;;;;;;;1.42;0.73;;;25.90;80.20;;;;;;5125072;23;20521;-63
2022/03/08 04:44:55;;;;;;;2.58;0.95;;;25.90;80.20;;;;;;5147976;23;20099;-65
2022/03/08 04:47:17;;;;;;;2.03;0.93;;;26.00;80.30;;;;;;5144855;23;20059;-66
2022/03/08 04:49:41;;;;;;;1.45;0.45;;;26.00;80.20;;;;;;5112502;23;20805;-62
2022/03/08 04:52:03;;;;;;;2.95;0.60;;;26.00;80.20;;;;;;5143963;23;20086;-65
2022/03/08 04:54:26;;;;;;;1.10;0.50;;;25.90;80.10;;;;;;5146167;23;20090;-65
2022/03/08 04:56:48;;;;;;;2.42;0.65;;;26.00;80.20;;;;;;5142027;23;20012;-65
2022/03/08 04:59:11;;;;;;;1.45;0.65;;;25.90;80.20;;;;;;5145939;23;20645;-65
2022/03/08 05:01:33;;;;;;;2.08;0.60;;;25.90;80.20;;;;;;5144811;23;20010;-65
2022/03/08 05:03:56;;;;;;;1.88;0.75;;;26.00;80.20;;;;;;5140767;23;20102;-66
2022/03/08 05:06:19;;;;;;;2.45;0.98;;;26.00;80.20;;;;;;5132176;23;20018;-64
2022/03/08 05:08:41;;;;;;;4.15;0.70;;;26.00;80.20;;;;;;5143555;23;20286;-65
2022/03/08 05:11:04;;;;;;;1.25;0.50;;;25.90;80.00;;;;;;5139947;23;20424;-63
2022/03/08 05:13:30;;;;;;;1.48;0.45;;;25.90;80.00;;;;;;5142322;23;20491;-64
2022/03/08 05:15:57;;;;;;;0.98;0.63;;;25.90;79.90;;;;;;5109209;23;20017;-62
2022/03/08 05:18:23;;;;;;;0.80;0.47;;;25.90;79.90;;;;;;5139620;23;20427;-63
2022/03/08 05:20:45;;;;;;;1.05;0.50;;;26.00;79.80;;;;;;5142076;23;20012;-64
2022/03/08 05:23:16;;;;;;;0.70;0.50;;;25.90;79.70;;;;;;5108991;23;20016;-65
2022/03/08 05:25:39;;;;;;;0.73;0.45;;;26.00;79.80;;;;;;5136889;23;20050;-64
2022/03/08 05:28:02;;;;;;;1.35;0.55;;;25.90;79.60;;;;;;5144550;23;20085;-65
2022/03/08 05:30:24;;;;;;;0.52;0.43;;;26.00;79.70;;;;;;5142008;23;20031;-64
2022/03/08 05:32:47;;;;;;;2.30;0.60;;;25.90;79.50;;;;;;5147328;23;20097;-65
2022/03/08 05:35:11;;;;;;;1.63;0.45;;;25.90;79.50;;;;;;5143015;23;20031;-67
2022/03/08 05:37:37;;;;;;;2.63;0.65;;;25.90;79.50;;;;;;5138249;23;20016;-65
2022/03/08 05:40:00;;;;;;;0.50;0.38;;;25.90;79.30;;;;;;5154774;23;20347;-67
2022/03/08 05:42:22;;;;;;;3.08;0.52;;;25.90;79.40;;;;;;5152372;23;20012;-65
2022/03/08 05:44:44;;;;;;;0.45;0.40;;;25.90;79.30;;;;;;5151618;23;20864;-65
2022/03/08 05:47:07;;;;;;;1.02;0.52;;;25.90;78.70;;;;;;5152301;23;20016;-63
2022/03/08 05:49:30;;;;;;;1.50;0.50;;;25.80;77.20;;;;;;5137197;23;20366;-64
2022/03/08 05:51:53;;;;;;;1.30;0.70;;;25.70;77.20;;;;;;5136487;23;20253;-64
2022/03/08 05:54:16;;;;;;;2.80;0.68;;;25.70;77.30;;;;;;5133973;23;20588;-64
2022/03/08 05:57:19;;;;;;;1.75;0.68;;;25.60;77.30;;;;;;5152958;23;20095;-71
2022/03/08 05:59:44;;;;;;;1.90;0.70;;;25.50;77.40;;;;;;5134119;22;20012;-65
2022/03/08 06:02:06;;;;;;;1.33;0.52;;;25.50;77.60;;;;;;5125308;23;20851;-64
2022/03/08 06:04:29;;;;;;;2.63;0.80;;;25.40;78.40;;;;;;5129333;23;20698;-66
2022/03/08 06:06:54;;;;;;;2.85;0.80;;;25.40;78.80;;;;;;5130257;23;20016;-66
2022/03/08 06:09:17;;;;;;;4.20;1.05;;;25.40;78.00;;;;;;5129815;23;20004;-61
2022/03/08 06:11:39;;;;;;;8.07;0.83;;;25.30;78.10;;;;;;5128677;23;20154;-67
2022/03/08 06:14:02;;;;;;;4.32;0.88;;;25.30;78.00;;;;;;5132784;23;20032;-65
2022/03/08 06:16:24;;;;;;;4.28;1.00;;;25.30;78.30;;;;;;5128212;23;20016;-67
2022/03/08 06:18:47;;;;;;;3.88;1.73;;;25.30;77.50;;;;;;5130251;23;20051;-66
2022/03/08 06:21:09;;;;;;;3.88;3.15;;;25.20;78.00;;;;;;5136385;23;20118;-65
2022/03/08 06:23:31;;;;;;;7.32;6.22;;;25.20;77.50;;;;;;5135255;23;20331;-65
2022/03/08 06:25:54;;;;;;;5.55;4.95;;;25.10;78.00;;;;;;5133829;23;20016;-65
2022/03/08 06:28:17;;;;;;;5.55;4.00;;;25.10;77.30;;;;;;5135116;23;20119;-63
2022/03/08 06:30:42;;;;;;;3.10;2.80;;;25.00;77.80;;;;;;5137036;23;20024;-65
2022/03/08 06:33:05;;;;;;;3.42;2.58;;;25.00;77.40;;;;;;5133393;23;20810;-63
2022/03/08 06:35:27;;;;;;;2.60;2.03;;;24.90;77.70;;;;;;5134691;23;20020;-64
2022/03/08 06:37:50;;;;;;;2.80;1.90;;;24.90;77.90;;;;;;5128271;23;20020;-63
2022/03/08 06:40:13;;;;;;;2.25;1.50;;;24.90;78.20;;;;;;5094928;23;20021;-65
2022/03/08 06:42:36;;;;;;;1.58;1.20;;;24.80;78.20;;;;;;5123787;23;20012;-65
2022/03/08 06:44:59;;;;;;;1.92;1.23;;;24.80;78.20;;;;;;5123799;23;20400;-64
2022/03/08 06:47:21;;;;;;;3.90;1.20;;;24.90;78.60;;;;;;5118794;23;20852;-61
2022/03/08 06:49:44;;;;;;;2.38;1.02;;;24.80;77.90;;;;;;5124273;23;20766;-62
2022/03/08 06:52:13;;;;;;;1.52;0.80;;;24.80;78.20;;;;;;5114120;23;20046;-62
2022/03/08 06:54:37;;;;;;;5.70;0.85;;;24.80;77.20;;;;;;5121537;23;20032;-62
2022/03/08 06:56:59;;;;;;;2.10;0.80;;;24.70;77.10;;;;;;5125673;23;20570;-61
2022/03/08 06:59:23;;;;;;;1.70;0.70;;;24.70;78.10;;;;;;5123332;23;20213;-61
2022/03/08 07:01:45;;;;;;;2.33;0.77;;;24.70;78.00;;;;;;5119397;23;20379;-63
2022/03/08 07:04:07;;;;;;;1.92;0.90;;;24.60;77.80;;;;;;5127855;23;20671;-62
2022/03/08 07:06:30;;;;;;;3.78;0.82;;;24.60;78.10;;;;;;5127366;23;20026;-63
2022/03/08 07:08:53;;;;;;;2.47;0.60;;;24.60;78.30;;;;;;5127887;23;21017;-62
2022/03/08 07:11:16;;;;;;;8.20;1.08;;;24.60;78.50;;;;;;5132810;23;20018;-61
2022/03/08 07:13:39;;;;;;;1.25;0.68;;;24.60;78.70;;;;;;5128811;23;20023;-62
2022/03/08 07:16:01;;;;;;;2.17;1.00;;;24.60;78.60;;;;;;5125626;23;20016;-63
2022/03/08 07:18:24;;;;;;;2.63;0.50;;;24.60;78.70;;;;;;5131648;23;20066;-64
2022/03/08 07:20:47;;;;;;;1.88;0.70;;;24.60;78.70;;;;;;5119971;23;20143;-62
2022/03/08 07:23:09;;;;;;;1.95;0.60;;;24.60;78.80;;;;;;5127751;23;20436;-64
2022/03/08 07:25:32;;;;;;;0.98;0.50;;;24.60;78.80;;;;;;5136332;23;20280;-63
2022/03/08 07:27:54;;;;;;;1.15;0.60;;;24.60;79.10;;;;;;5132059;23;20090;-64
2022/03/08 07:30:17;;;;;;;1.95;0.63;;;24.60;78.90;;;;;;5131288;23;20024;-61
2022/03/08 07:32:39;;;;;;;2.70;0.50;;;24.60;79.00;;;;;;5135792;23;20016;-60
2022/03/08 07:35:03;;;;;;;0.68;0.40;;;24.60;79.00;;;;;;5138067;23;20028;-62
2022/03/08 07:37:25;;;;;;;1.17;0.50;;;24.60;79.10;;;;;;5128986;23;20016;-63
2022/03/08 07:39:48;;;;;;;1.25;0.50;;;24.60;79.20;;;;;;5135676;23;20821;-63
2022/03/08 07:42:10;;;;;;;1.60;0.40;;;24.60;79.20;;;;;;5137344;23;20022;-61
2022/03/08 07:44:37;;;;;;;0.40;0.40;;;24.70;79.40;;;;;;5131758;23;20051;-62
2022/03/08 07:47:00;;;;;;;0.88;0.38;;;24.70;79.40;;;;;;5135004;23;20122;-62
2022/03/08 07:49:25;;;;;;;4.22;0.65;;;24.70;79.50;;;;;;5123323;23;20134;-61
2022/03/08 07:51:48;;;;;;;0.75;0.40;;;24.70;79.60;;;;;;5132801;23;20016;-63
2022/03/08 07:54:10;;;;;;;2.15;0.40;;;24.60;79.50;;;;;;5136331;23;20036;-63
2022/03/08 07:56:33;;;;;;;1.40;0.40;;;24.70;79.70;;;;;;5134760;23;20019;-63
2022/03/08 07:58:56;;;;;;;1.15;0.40;;;24.70;79.70;;;;;;5133447;23;20031;-62
2022/03/08 08:01:18;;;;;;;1.98;0.40;;;24.70;79.70;;;;;;5134422;23;20085;-61
2022/03/08 08:03:41;;;;;;;1.38;0.30;;;24.70;79.80;;;;;;5134350;23;20286;-61
2022/03/08 08:06:04;;;;;;;1.35;0.30;;;24.70;79.80;;;;;;5131410;23;20016;-65
2022/03/08 08:08:26;;;;;;;0.43;0.43;;;24.70;79.80;;;;;;5142275;23;20008;-61
2022/03/08 08:10:49;;;;;;;0.38;0.30;;;24.70;79.70;;;;;;5141726;23;20045;-59
2022/03/08 08:13:11;;;;;;;1.52;0.43;;;24.70;79.80;;;;;;5136916;23;20043;-61
2022/03/08 08:15:36;;;;;;;0.55;0.30;;;24.70;79.70;;;;;;5139578;23;20913;-62
2022/03/08 08:17:59;;;;;;;2.25;0.52;;;24.70;79.60;;;;;;5139284;23;20015;-62
2022/03/08 08:20:21;;;;;;;2.58;0.80;;;24.70;79.70;;;;;;5137383;23;20019;-62
2022/03/08 08:22:44;;;;;;;0.40;0.40;;;24.70;79.70;;;;;;5139812;23;20337;-62
2022/03/08 08:25:10;;;;;;;0.77;0.40;;;24.70;79.70;;;;;;5141359;23;20087;-62
2022/03/08 08:27:33;;;;;;;1.63;0.52;;;24.70;79.80;;;;;;5129412;23;20090;-61
2022/03/08 08:29:55;;;;;;;2.00;0.60;;;24.70;79.80;;;;;;5141461;23;20020;-60
2022/03/08 08:32:18;;;;;;;2.20;0.40;;;24.70;79.80;;;;;;5138220;23;20039;-60
2022/03/08 08:34:40;;;;;;;0.38;0.30;;;24.70;79.90;;;;;;5108764;23;20833;-59
2022/03/08 08:37:03;;;;;;;1.35;0.43;;;24.70;79.80;;;;;;5141308;23;20085;-65
2022/03/08 08:39:26;;;;;;;2.45;0.40;;;24.70;79.80;;;;;;5143077;22;20023;-60
2022/03/08 08:41:48;;;;;;;2.45;0.35;;;24.70;79.80;;;;;;5139487;23;20035;-61
2022/03/08 08:44:11;;;;;;;2.53;0.40;;;24.70;79.90;;;;;;5140231;23;20016;-61
2022/03/08 08:46:34;;;;;;;0.30;0.30;;;24.70;79.90;;;;;;5142746;23;20016;-62
2022/03/08 08:48:57;;;;;;;1.98;0.55;;;24.70;79.80;;;;;;5140021;23;20019;-60
2022/03/08 08:51:43;;;;;;;0.30;0.30;;;24.70;79.90;;;;;;5132207;23;20624;-65
2022/03/08 08:54:05;;;;;;;0.20;0.20;;;24.70;79.70;;;;;;5128741;23;20027;-66
2022/03/08 08:56:28;;;;;;;0.40;0.30;;;24.70;79.70;;;;;;5131316;23;20054;-68
2022/03/08 08:58:51;;;;;;;0.52;0.30;;;24.70;79.70;;;;;;5097939;23;20040;-64
2022/03/08 09:01:16;;;;;;;0.35;0.20;;;24.70;79.60;;;;;;5130506;23;20085;-60
2022/03/08 09:03:39;;;;;;;0.28;0.22;;;24.70;79.60;;;;;;5130535;23;20234;-66
2022/03/08 09:06:02;;;;;;;5.43;0.50;;;24.70;79.50;;;;;;5127947;23;20012;-61
2022/03/08 09:08:24;;;;;;;3.95;0.30;;;24.60;79.50;;;;;;5127252;23;20078;-64
2022/03/08 09:10:47;;;;;;;0.47;0.30;;;24.60;79.60;;;;;;5130650;23;20020;-62
2022/03/08 09:13:10;;;;;;;0.17;0.17;;;24.70;79.50;;;;;;5127460;23;20023;-61
2022/03/08 09:15:33;;;;;;;1.48;0.35;;;24.70;79.50;;;;;;5129512;23;20016;-62
2022/03/08 09:17:59;;;;;;;1.35;0.30;;;24.70;79.30;;;;;;5128288;23;20082;-63
2022/03/08 09:20:25;;;;;;;0.43;0.30;;;24.70;79.20;;;;;;5096824;23;20116;-60
2022/03/08 09:22:48;;;;;;;1.27;0.50;;;24.70;79.20;;;;;;5132348;23;20095;-58
2022/03/08 09:25:11;;;;;;;0.47;0.20;;;24.70;79.20;;;;;;5132783;23;20139;-62
2022/03/08 09:27:34;;;;;;;6.03;0.60;;;24.70;79.20;;;;;;5131331;23;20016;-65
2022/03/08 09:29:57;;;;;;;0.40;0.23;;;24.60;79.10;;;;;;5105737;23;20174;-61
2022/03/08 09:32:19;;;;;;;0.70;0.40;;;24.60;79.10;;;;;;5133261;22;20016;-61
2022/03/08 09:34:42;;;;;;;1.95;0.30;;;24.60;79.00;;;;;;5133534;23;20034;-64
2022/03/08 09:37:06;;;;;;;9.35;0.90;;;24.60;79.10;;;;;;5074600;22;20024;-63
2022/03/08 09:39:28;;;;;;;0.95;0.50;;;24.60;79.20;;;;;;5158037;22;20098;-63
2022/03/08 09:41:53;;;;;;;1.50;0.47;;;24.60;79.40;;;;;;5163526;22;20073;-64
2022/03/08 09:44:16;;;;;;;0.85;0.65;;;24.60;79.40;;;;;;5167459;22;20015;-64
2022/03/08 09:46:38;;;;;;;1.00;0.50;;;24.60;79.40;;;;;;5133560;22;20026;-63
2022/03/08 09:49:04;;;;;;;0.45;0.40;;;24.60;79.30;;;;;;5159911;22;20069;-64
2022/03/08 09:51:27;;;;;;;1.10;0.45;;;24.60;79.20;;;;;;5168077;22;20129;-64
2022/03/08 09:54:01;;;;;;;0.30;0.30;;;24.60;79.20;;;;;;5173850;22;20106;-64
2022/03/08 09:56:26;;;;;;;10.82;0.60;;;24.70;79.30;;;;;;5175211;22;20081;-64
2022/03/08 09:58:50;;;;;;;0.73;0.50;;;24.70;79.20;;;;;;5172882;22;20062;-62
2022/03/08 10:01:12;;;;;;;0.40;0.40;;;24.70;79.80;;;;;;5170145;22;20008;-65
2022/03/08 10:03:40;;;;;;;0.43;0.43;;;24.70;79.00;;;;;;5167512;22;20070;-64
2022/03/08 10:06:04;;;;;;;0.30;0.30;;;24.70;79.00;;;;;;5164471;22;20011;-64
2022/03/08 10:08:28;;;;;;;1.55;0.38;;;24.70;78.90;;;;;;5165938;22;20026;-64
2022/03/08 10:11:01;;;;;;;0.40;0.40;;;24.70;78.80;;;;;;5163506;22;20378;-63
2022/03/08 10:13:26;;;;;;;0.40;0.40;;;24.70;78.70;;;;;;5161250;22;20687;-63
2022/03/08 10:16:05;;;;;;;1.48;0.50;;;24.70;78.60;;;;;;5155453;22;20020;-63
2022/03/08 10:18:42;;;;;;;0.43;0.40;;;24.70;78.60;;;;;;5158680;22;20073;-62
2022/03/08 10:21:09;;;;;;;0.30;0.30;;;24.70;78.60;;;;;;5159608;22;20019;-62
2022/03/08 10:23:50;;;;;;;2.55;0.30;;;24.70;78.50;;;;;;5155546;22;20414;-63
2022/03/08 10:26:15;;;;;;;0.47;0.45;;;24.70;78.50;;;;;;5156884;22;20098;-64
2022/03/08 10:28:46;;;;;;;0.40;0.40;;;24.70;78.30;;;;;;5157635;22;20011;-64
2022/03/08 10:31:14;;;;;;;0.52;0.40;;;24.70;78.30;;;;;;5157822;22;20701;-63
2022/03/08 10:33:39;;;;;;;0.35;0.35;;;24.70;78.20;;;;;;5154273;22;20888;-63
2022/03/08 10:36:03;;;;;;;1.30;0.50;;;24.70;78.00;;;;;;5159848;22;20943;-62
2022/03/08 10:38:26;;;;;;;0.40;0.40;;;24.70;78.00;;;;;;5152524;22;20007;-64
2022/03/08 10:40:48;;;;;;;1.98;0.63;;;24.80;78.00;;;;;;5157106;22;20023;-62
2022/03/08 10:43:16;;;;;;;1.00;0.50;;;24.70;78.00;;;;;;5154239;22;20115;-63
2022/03/08 10:45:46;;;;;;;0.30;0.30;;;24.70;78.10;;;;;;5121859;22;20544;-64
2022/03/08 10:48:13;;;;;;;0.52;0.40;;;24.70;77.90;;;;;;5153682;22;20030;-63
2022/03/08 10:50:39;;;;;;;0.55;0.40;;;24.70;77.80;;;;;;5143568;22;20019;-63
2022/03/08 10:53:05;;;;;;;1.25;0.70;;;24.70;77.80;;;;;;5155875;22;20041;-64
2022/03/08 10:55:34;;;;;;;0.47;0.40;;;24.70;77.80;;;;;;5147800;22;20110;-63
2022/03/08 10:58:03;;;;;;;1.02;0.60;;;24.80;77.90;;;;;;5155473;22;20022;-62
2022/03/08 11:00:37;;;;;;;;;;;;;;;;;;;;;
2022/03/08 11:03:01;;;;;;;;;;;24.70;77.70;;;;;;5151367;22;20077;-63
2022/03/08 11:05:39;;;;;;;2.08;0.45;;;24.70;77.70;;;;;;5152805;22;19980;-62
2022/03/08 11:08:06;;;;;;;0.65;0.50;;;24.70;77.60;;;;;;5155281;22;20019;-63
2022/03/08 11:10:30;;;;;;;0.82;0.77;;;24.70;77.50;;;;;;5157308;22;20618;-64
2022/03/08 11:12:54;;;;;;;0.40;0.40;;;24.70;77.50;;;;;;5157748;22;20241;-64
2022/03/08 11:15:17;;;;;;;;;;;24.70;77.50;;;;;;5152551;22;20027;-62
2022/03/08 11:17:44;;;;;;;0.75;0.65;;;24.70;77.40;;;;;;5156351;22;20178;-65
2022/03/08 11:20:09;;;;;;;0.43;0.43;;;24.70;77.50;;;;;;5153794;22;20459;-62
2022/03/08 11:22:32;;;;;;;0.38;0.32;;;24.70;77.50;;;;;;5151189;22;20370;-64
2022/03/08 11:24:57;;;;;;;1.63;0.88;;;24.70;77.50;;;;;;5150984;22;20019;-65
2022/03/08 11:27:20;;;;;;;5.68;0.63;;;24.70;77.40;;;;;;5152682;22;20016;-65
2022/03/08 11:29:43;;;;;;;1.75;0.68;;;24.70;77.30;;;;;;5152757;22;20089;-61
2022/03/08 11:32:13;;;;;;;0.60;0.60;;;24.70;77.30;;;;;;5156958;22;20016;-61
2022/03/08 11:34:42;;;;;;;0.38;0.35;;;24.70;77.30;;;;;;5148941;22;20027;-63
2022/03/08 11:37:19;;;;;;;0.43;0.43;;;24.70;77.30;;;;;;5155102;22;20122;-63
2022/03/08 11:39:43;;;;;;;0.30;0.30;;;24.70;77.20;;;;;;5153899;22;20018;-62
2022/03/08 11:42:31;;;;;;;0.57;0.50;;;24.70;77.00;;;;;;5151064;22;20393;-63
2022/03/08 11:45:00;;;;;;;2.10;0.50;;;24.70;77.00;;;;;;5141819;22;20015;-62
2022/03/08 11:47:23;;;;;;;0.45;0.45;;;24.70;77.00;;;;;;5151256;22;20498;-62
2022/03/08 11:49:51;;;;;;;5.40;0.45;;;24.70;77.00;;;;;;5153634;22;20073;-63
2022/03/08 11:52:30;;;;;;;0.25;0.25;;;24.70;76.90;;;;;;5120053;22;20016;-61
2022/03/08 11:55:09;;;;;;;0.38;0.38;;;24.70;77.00;;;;;;5151839;22;20023;-64
2022/03/08 11:57:55;;;;;;;1.17;0.40;;;24.70;76.90;;;;;;5159388;22;20023;-62
2022/03/08 12:00:32;;;;;;;3.42;0.70;;;24.70;76.80;;;;;;5158224;22;20294;-64
2022/03/08 12:02:58;;;;;;;5.47;0.52;;;24.70;76.80;;;;;;5153308;22;20983;-64
2022/03/08 12:05:38;;;;;;;1.48;0.30;;;24.70;76.70;;;;;;5157654;22;20106;-63
2022/03/08 12:08:26;;;;;;;3.78;0.43;;;24.70;76.50;;;;;;5158787;22;20011;-60
2022/03/08 12:11:00;;;;;;;0.73;0.30;;;24.60;76.60;;;;;;5157058;22;20015;-61
2022/03/08 12:13:23;;;;;;;;;;;24.60;76.80;;;;;;5147644;22;20456;-60
2022/03/08 12:16:25;;;;;;;0.38;0.30;;;24.60;77.50;;;;;;5159220;22;19906;-64
2022/03/08 12:18:50;;;;;;;0.93;0.38;;;24.60;77.70;;;;;;5048160;23;20052;-63
2022/03/08 12:21:31;;;;;;;0.40;0.40;;;24.50;75.20;;;;;;5057126;23;20766;-62
2022/03/08 12:24:05;;;;;;;1.25;0.32;;;24.50;75.20;;;;;;5122709;22;20011;-61
2022/03/08 12:26:46;;;;;;;2.58;0.80;;;24.50;75.40;;;;;;5153293;22;20019;-61
2022/03/08 12:29:15;;;;;;;4.38;0.57;;;24.50;76.40;;;;;;5154960;22;20424;-63
2022/03/08 12:32:01;;;;;;;2.25;0.30;;;24.50;76.50;;;;;;5108612;23;20732;-59
2022/03/08 12:34:43;;;;;;;0.60;0.30;;;24.40;76.80;;;;;;5103360;23;20036;-62